Time;durP1;ratioP1;P1;durP2;ratioP2;P2;SDS_P1;SDS_P2;PMS_P1;PMS_P2;Temp;Humidity;BMP_temperature;BMP_pressure;BME280_temperature;BME280_humidity;BME280_pressure;Samples;Min_cycle;Max_cycle;Signal;HPM_P1;HPM_P2
2024/02/21 00:01:36;;;;;;;11.45;3.50;;;8.90;99.90;;;;;;5053450;28;20120;-77
2024/02/21 00:04:01;;;;;;;12.15;3.15;;;8.90;99.90;;;;;;5069621;28;20021;-78
2024/02/21 00:06:27;;;;;;;10.93;3.30;;;8.90;99.90;;;;;;5069554;28;20028;-78
2024/02/21 00:08:52;;;;;;;13.20;3.35;;;8.80;99.90;;;;;;5068675;28;20474;-78
2024/02/21 00:11:18;;;;;;;10.48;3.53;;;8.80;99.90;;;;;;5069120;28;20125;-78
2024/02/21 00:13:44;;;;;;;12.05;3.60;;;8.80;99.90;;;;;;5068731;28;20029;-77
2024/02/21 00:16:10;;;;;;;9.52;3.47;;;8.80;99.90;;;;;;5054116;28;20036;-78
2024/02/21 00:18:36;;;;;;;8.60;3.30;;;8.80;99.90;;;;;;5053279;28;20025;-77
2024/02/21 00:21:02;;;;;;;10.43;3.60;;;8.80;99.90;;;;;;5053890;28;20082;-78
2024/02/21 00:23:28;;;;;;;11.95;3.67;;;8.80;99.90;;;;;;5052718;28;20028;-78
2024/02/21 00:25:54;;;;;;;12.18;3.13;;;8.70;99.90;;;;;;5053107;28;20040;-78
2024/02/21 00:28:20;;;;;;;12.00;3.78;;;8.70;99.90;;;;;;5069244;28;20409;-78
2024/02/21 00:30:47;;;;;;;8.68;3.03;;;8.80;99.90;;;;;;5052968;28;20446;-78
2024/02/21 00:33:13;;;;;;;6.88;2.80;;;8.80;99.90;;;;;;5068897;28;20090;-78
2024/02/21 00:35:39;;;;;;;10.40;3.33;;;8.80;99.90;;;;;;5068277;28;20524;-77
2024/02/21 00:38:04;;;;;;;17.05;3.70;;;8.80;99.90;;;;;;5069247;28;20021;-77
2024/02/21 00:40:30;;;;;;;6.43;2.78;;;8.80;99.90;;;;;;5068868;28;20026;-78
2024/02/21 00:42:56;;;;;;;11.32;2.95;;;8.70;99.90;;;;;;5068101;28;20052;-78
2024/02/21 00:45:22;;;;;;;6.95;3.28;;;8.70;99.90;;;;;;5053370;28;20473;-78
2024/02/21 00:47:47;;;;;;;7.40;3.30;;;8.70;99.90;;;;;;5052864;28;20458;-78
2024/02/21 00:50:13;;;;;;;14.10;3.17;;;8.70;99.90;;;;;;5053480;28;20060;-78
2024/02/21 00:52:39;;;;;;;14.77;2.72;;;8.70;99.90;;;;;;5052590;28;20021;-77
2024/02/21 00:55:05;;;;;;;7.13;3.13;;;8.70;99.90;;;;;;5068806;28;20033;-78
2024/02/21 00:57:31;;;;;;;11.50;2.70;;;8.70;99.90;;;;;;5053047;28;20455;-78
2024/02/21 00:59:57;;;;;;;11.32;3.08;;;8.70;99.90;;;;;;5068204;28;20481;-78
2024/02/21 01:02:23;;;;;;;7.60;2.90;;;8.70;99.90;;;;;;5052107;28;20029;-78
2024/02/21 01:04:48;;;;;;;9.63;3.05;;;8.70;99.90;;;;;;5052477;28;20562;-78
2024/02/21 01:07:14;;;;;;;10.02;2.50;;;8.70;99.90;;;;;;5052031;28;20032;-78
2024/02/21 01:09:39;;;;;;;7.00;2.95;;;8.60;99.90;;;;;;5067832;28;20029;-77
2024/02/21 01:12:05;;;;;;;6.03;3.20;;;8.60;99.90;;;;;;5051613;28;20036;-78
2024/02/21 01:14:31;;;;;;;6.32;2.60;;;8.60;99.90;;;;;;5052664;28;20083;-77
2024/02/21 01:16:57;;;;;;;10.60;3.00;;;8.50;99.90;;;;;;5067773;28;20090;-78
2024/02/21 01:19:22;;;;;;;8.82;3.22;;;8.60;99.90;;;;;;5052996;28;20037;-77
2024/02/21 01:21:48;;;;;;;16.17;3.40;;;8.50;99.90;;;;;;5067761;28;20433;-77
2024/02/21 01:24:14;;;;;;;9.00;3.40;;;8.50;99.90;;;;;;5068308;28;20021;-78
2024/02/21 01:26:40;;;;;;;12.27;2.92;;;8.50;99.90;;;;;;5067707;28;20033;-77
2024/02/21 01:29:06;;;;;;;11.43;2.80;;;8.50;99.90;;;;;;5052151;28;20078;-78
2024/02/21 01:31:31;;;;;;;10.85;2.90;;;8.40;99.90;;;;;;5068216;28;20028;-76
2024/02/21 01:33:57;;;;;;;6.50;2.28;;;8.40;99.90;;;;;;5067690;28;20396;-78
2024/02/21 01:36:23;;;;;;;14.38;2.72;;;8.40;99.90;;;;;;5051087;28;20506;-78
2024/02/21 01:38:49;;;;;;;7.68;2.50;;;8.40;99.90;;;;;;5067433;28;20462;-77
2024/02/21 01:41:16;;;;;;;8.70;2.58;;;8.40;99.90;;;;;;5051510;28;20025;-77
2024/02/21 01:43:42;;;;;;;11.50;3.70;;;8.40;99.90;;;;;;5050646;28;20053;-78
2024/02/21 01:46:07;;;;;;;9.00;2.20;;;8.40;99.90;;;;;;5068299;28;20079;-78
2024/02/21 01:48:33;;;;;;;7.45;2.50;;;8.40;99.90;;;;;;5068379;28;20032;-78
2024/02/21 01:51:00;;;;;;;5.28;2.33;;;8.40;99.90;;;;;;5052212;28;20025;-78
2024/02/21 01:53:31;;;;;;;10.10;2.30;;;8.40;99.90;;;;;;5052803;28;20444;-78
2024/02/21 01:55:56;;;;;;;8.57;2.53;;;8.40;99.90;;;;;;5067608;28;20044;-78
2024/02/21 01:58:23;;;;;;;11.60;3.22;;;8.40;99.90;;;;;;5052309;28;20029;-78
2024/02/21 02:00:50;;;;;;;10.80;2.88;;;8.40;99.90;;;;;;5051923;28;20029;-78
2024/02/21 02:03:18;;;;;;;11.10;2.22;;;8.40;99.90;;;;;;5052332;28;20021;-78
2024/02/21 02:05:47;;;;;;;9.35;2.60;;;8.40;99.90;;;;;;5051723;28;20470;-78
2024/02/21 02:08:18;;;;;;;7.95;2.03;;;8.40;99.90;;;;;;5067832;28;20072;-78
2024/02/21 02:10:43;;;;;;;8.50;2.40;;;8.40;99.90;;;;;;5069780;28;20116;-77
2024/02/21 02:13:09;;;;;;;9.75;2.40;;;8.40;99.90;;;;;;5056332;28;20067;-78
2024/02/21 02:15:46;;;;;;;7.32;2.30;;;8.40;99.90;;;;;;5055016;28;20029;-78
2024/02/21 02:18:13;;;;;;;7.03;2.30;;;8.40;99.90;;;;;;5056156;28;20033;-78
2024/02/21 02:20:39;;;;;;;8.02;2.08;;;8.50;99.90;;;;;;5056230;28;20056;-78
2024/02/21 02:23:10;;;;;;;7.03;1.85;;;8.40;99.90;;;;;;5070601;28;20112;-78
2024/02/21 02:25:37;;;;;;;4.93;2.00;;;8.40;99.90;;;;;;5071561;28;20021;-78
2024/02/21 02:28:11;;;;;;;11.43;2.20;;;8.40;99.90;;;;;;5055365;28;20119;-77
2024/02/21 02:30:37;;;;;;;9.25;2.40;;;8.40;99.90;;;;;;5054854;28;20021;-78
2024/02/21 02:33:04;;;;;;;7.72;2.33;;;8.50;99.90;;;;;;5055242;28;20482;-78
2024/02/21 02:35:29;;;;;;;8.25;2.38;;;8.50;99.90;;;;;;5055682;28;20561;-78
2024/02/21 02:37:55;;;;;;;10.70;2.35;;;8.50;99.90;;;;;;5054925;28;20159;-78
2024/02/21 02:40:21;;;;;;;8.95;2.47;;;8.50;99.90;;;;;;5055755;28;20021;-78
2024/02/21 02:42:48;;;;;;;8.65;2.25;;;8.50;99.90;;;;;;5053545;28;20041;-77
2024/02/21 02:45:17;;;;;;;6.95;2.40;;;8.50;99.90;;;;;;5054476;28;20474;-77
2024/02/21 02:47:46;;;;;;;10.10;2.78;;;8.50;99.90;;;;;;5054868;28;20501;-77
2024/02/21 02:50:12;;;;;;;8.68;2.60;;;8.50;99.90;;;;;;5055398;28;20082;-77
2024/02/21 02:52:38;;;;;;;5.03;2.00;;;8.50;99.90;;;;;;5071024;28;20382;-78
2024/02/21 02:55:05;;;;;;;3.70;2.20;;;8.50;99.90;;;;;;5053477;28;20021;-78
2024/02/21 02:57:30;;;;;;;9.50;2.95;;;8.40;99.90;;;;;;5055154;28;20029;-78
2024/02/21 02:59:56;;;;;;;10.10;2.38;;;8.40;99.90;;;;;;5070092;28;20035;-78
2024/02/21 03:02:22;;;;;;;8.43;2.33;;;8.40;99.90;;;;;;5054165;28;20386;-78
2024/02/21 03:04:47;;;;;;;7.18;2.08;;;8.40;99.90;;;;;;5054536;28;20112;-77
2024/02/21 03:07:14;;;;;;;8.45;2.28;;;8.40;99.90;;;;;;5053815;28;20028;-77
2024/02/21 03:09:40;;;;;;;7.97;2.28;;;8.40;99.90;;;;;;5070651;28;20025;-78
2024/02/21 03:12:06;;;;;;;6.32;2.30;;;8.40;99.90;;;;;;5069748;28;20040;-77
2024/02/21 03:14:32;;;;;;;7.00;2.42;;;8.40;99.90;;;;;;5070569;28;20067;-78
2024/02/21 03:16:58;;;;;;;4.80;2.03;;;8.40;99.90;;;;;;5054292;28;20040;-76
2024/02/21 03:19:24;;;;;;;7.43;2.20;;;8.40;99.90;;;;;;5055080;28;20103;-77
2024/02/21 03:21:50;;;;;;;8.52;2.95;;;8.40;99.90;;;;;;5052889;28;20470;-76
2024/02/21 03:24:19;;;;;;;7.70;2.25;;;8.40;99.90;;;;;;5070338;28;20036;-76
2024/02/21 03:26:49;;;;;;;7.18;1.98;;;8.40;99.90;;;;;;5069314;28;20029;-77
2024/02/21 03:29:15;;;;;;;7.28;1.95;;;8.40;99.90;;;;;;5069936;28;20029;-78
2024/02/21 03:31:42;;;;;;;7.53;2.40;;;8.40;99.90;;;;;;5070243;28;20025;-77
2024/02/21 03:34:07;;;;;;;7.63;2.42;;;8.50;99.90;;;;;;5054015;28;20048;-78
2024/02/21 03:36:33;;;;;;;6.60;2.45;;;8.50;99.90;;;;;;5053145;28;20474;-76
2024/02/21 03:38:59;;;;;;;4.80;2.45;;;8.50;99.90;;;;;;5069462;28;20444;-77
2024/02/21 03:41:24;;;;;;;5.97;2.03;;;8.50;99.90;;;;;;5069510;28;20021;-77
2024/02/21 03:43:50;;;;;;;8.70;2.20;;;8.50;99.90;;;;;;5069180;28;20103;-76
2024/02/21 03:46:15;;;;;;;6.72;2.03;;;8.50;99.90;;;;;;5054181;28;20033;-77
2024/02/21 03:48:41;;;;;;;6.78;1.90;;;8.50;99.90;;;;;;5054394;28;20029;-77
2024/02/21 03:51:07;;;;;;;5.38;2.13;;;8.40;99.90;;;;;;5053798;28;20424;-78
2024/02/21 03:53:32;;;;;;;10.07;2.35;;;8.40;99.90;;;;;;5054482;28;20032;-78
2024/02/21 03:56:03;;;;;;;7.57;2.50;;;8.40;99.90;;;;;;5069207;28;20025;-78
2024/02/21 03:58:29;;;;;;;6.00;2.00;;;8.40;99.90;;;;;;5069853;28;20025;-77
2024/02/21 04:00:55;;;;;;;10.13;2.05;;;8.40;99.90;;;;;;5053215;28;20170;-77
2024/02/21 04:03:20;;;;;;;6.88;2.13;;;8.40;99.90;;;;;;5069675;28;20474;-77
2024/02/21 04:05:46;;;;;;;6.50;1.90;;;8.30;99.90;;;;;;5054098;28;20025;-78
2024/02/21 04:08:12;;;;;;;11.93;2.08;;;8.30;99.90;;;;;;5054037;28;20025;-77
2024/02/21 04:10:38;;;;;;;8.50;1.98;;;8.30;99.90;;;;;;5053851;28;20065;-77
2024/02/21 04:13:06;;;;;;;5.75;1.92;;;8.30;99.90;;;;;;5053084;28;20068;-77
2024/02/21 04:15:31;;;;;;;5.95;1.95;;;8.30;99.90;;;;;;5069356;28;20123;-78
2024/02/21 04:17:57;;;;;;;7.93;2.33;;;8.20;99.90;;;;;;5053145;28;20068;-77
2024/02/21 04:20:23;;;;;;;9.00;2.30;;;8.20;99.90;;;;;;5052491;28;20033;-77
2024/02/21 04:22:49;;;;;;;9.43;2.53;;;8.20;99.90;;;;;;5051947;28;20444;-77
2024/02/21 04:25:14;;;;;;;8.18;2.40;;;8.10;99.90;;;;;;5052721;28;20029;-77
2024/02/21 04:27:40;;;;;;;5.68;2.15;;;8.10;99.90;;;;;;5053705;28;20608;-77
2024/02/21 04:30:07;;;;;;;7.63;2.53;;;8.10;99.90;;;;;;5068322;28;20031;-76
2024/02/21 04:32:33;;;;;;;8.95;2.67;;;8.10;99.90;;;;;;5068567;28;20561;-77
2024/02/21 04:34:58;;;;;;;6.20;2.35;;;8.10;99.90;;;;;;5068383;28;20107;-77
2024/02/21 04:37:24;;;;;;;5.72;2.38;;;8.10;99.90;;;;;;5053372;28;20029;-77
2024/02/21 04:39:50;;;;;;;7.47;2.83;;;8.10;99.90;;;;;;5052808;28;20020;-77
2024/02/21 04:42:16;;;;;;;8.93;2.30;;;8.00;99.90;;;;;;5051826;28;20055;-77
2024/02/21 04:44:42;;;;;;;10.32;2.47;;;8.00;99.90;;;;;;5052785;28;20048;-77
2024/02/21 04:47:08;;;;;;;4.60;2.08;;;8.00;99.90;;;;;;5051582;28;20120;-77
2024/02/21 04:49:34;;;;;;;7.82;2.17;;;8.00;99.90;;;;;;5068585;28;20033;-77
2024/02/21 04:52:00;;;;;;;11.15;2.42;;;8.00;99.90;;;;;;5068137;28;20122;-77
2024/02/21 04:54:26;;;;;;;9.90;2.30;;;7.90;99.90;;;;;;5052125;28;20025;-78
2024/02/21 04:56:51;;;;;;;4.88;2.13;;;7.90;99.90;;;;;;5067821;28;20032;-76
2024/02/21 04:59:17;;;;;;;8.50;2.72;;;7.90;99.90;;;;;;5053114;28;20396;-78
2024/02/21 05:01:43;;;;;;;5.75;2.13;;;7.90;99.90;;;;;;5068824;28;20120;-77
2024/02/21 05:04:09;;;;;;;7.30;2.30;;;7.90;99.90;;;;;;5052181;28;20112;-77
2024/02/21 05:06:41;;;;;;;5.88;2.05;;;7.90;99.90;;;;;;5052507;28;20033;-77
2024/02/21 05:09:08;;;;;;;11.30;2.67;;;7.90;99.90;;;;;;5067799;28;20025;-77
2024/02/21 05:11:34;;;;;;;8.85;2.67;;;7.80;99.90;;;;;;5068550;28;20033;-78
2024/02/21 05:14:00;;;;;;;5.85;2.03;;;7.80;99.90;;;;;;5052220;28;20033;-78
2024/02/21 05:16:26;;;;;;;5.90;2.10;;;7.80;99.90;;;;;;5068432;28;20037;-78
2024/02/21 05:18:51;;;;;;;11.45;2.20;;;7.80;99.90;;;;;;5052179;28;20028;-77
2024/02/21 05:21:17;;;;;;;9.02;2.55;;;7.80;99.90;;;;;;5051916;28;20043;-78
2024/02/21 05:23:43;;;;;;;5.30;2.35;;;7.80;99.90;;;;;;5068406;28;20440;-77
2024/02/21 05:26:09;;;;;;;6.45;2.30;;;7.70;99.90;;;;;;5067646;28;20067;-77
2024/02/21 05:28:34;;;;;;;7.57;2.70;;;7.70;99.90;;;;;;5068251;28;20044;-77
2024/02/21 05:31:00;;;;;;;11.00;2.35;;;7.70;99.90;;;;;;5067606;28;20397;-77
2024/02/21 05:33:26;;;;;;;7.75;2.88;;;7.70;99.90;;;;;;5051711;28;20032;-78
2024/02/21 05:35:52;;;;;;;7.63;2.28;;;7.60;99.90;;;;;;5052496;28;20083;-76
2024/02/21 05:38:18;;;;;;;6.25;2.17;;;7.60;99.90;;;;;;5051509;28;20456;-78
2024/02/21 05:40:45;;;;;;;7.80;2.55;;;7.60;99.90;;;;;;5052382;28;20055;-77
2024/02/21 05:43:10;;;;;;;5.95;2.30;;;7.60;99.90;;;;;;5067063;28;20103;-77
2024/02/21 05:45:37;;;;;;;7.32;2.10;;;7.60;99.90;;;;;;5054908;28;20033;-77
2024/02/21 05:48:03;;;;;;;8.05;2.38;;;7.60;99.90;;;;;;5056128;28;20025;-77
2024/02/21 05:50:29;;;;;;;8.02;2.72;;;7.60;99.90;;;;;;5055812;28;20025;-77
2024/02/21 05:52:55;;;;;;;12.05;2.42;;;7.50;99.90;;;;;;5071480;28;20021;-76
2024/02/21 05:55:21;;;;;;;13.32;2.42;;;7.50;99.90;;;;;;5056273;28;20378;-78
2024/02/21 05:57:47;;;;;;;7.57;2.50;;;7.40;99.90;;;;;;5054975;28;20033;-77
2024/02/21 06:00:13;;;;;;;9.90;2.65;;;7.40;99.90;;;;;;5055847;28;20025;-77
2024/02/21 06:02:39;;;;;;;7.65;2.58;;;7.40;99.90;;;;;;5071952;28;20445;-77
2024/02/21 06:05:07;;;;;;;6.10;2.60;;;7.30;99.90;;;;;;5055730;28;20370;-77
2024/02/21 06:07:33;;;;;;;8.95;2.20;;;7.30;99.90;;;;;;5056202;28;20033;-78
2024/02/21 06:09:59;;;;;;;12.70;3.13;;;7.20;99.90;;;;;;5055486;28;20021;-77
2024/02/21 06:12:25;;;;;;;6.82;2.70;;;7.20;99.90;;;;;;5071541;28;20029;-77
2024/02/21 06:14:51;;;;;;;7.45;2.60;;;7.20;99.90;;;;;;5056034;28;20025;-77
2024/02/21 06:17:16;;;;;;;10.82;2.88;;;7.20;99.90;;;;;;5055391;28;20533;-77
2024/02/21 06:19:44;;;;;;;8.27;2.50;;;7.30;99.90;;;;;;5055927;28;20355;-77
2024/02/21 06:22:09;;;;;;;8.02;3.00;;;7.30;99.90;;;;;;5070834;28;20056;-77
2024/02/21 06:24:36;;;;;;;9.85;2.80;;;7.20;99.90;;;;;;5071149;28;20114;-78
2024/02/21 06:27:03;;;;;;;6.68;2.30;;;7.20;99.90;;;;;;5054019;28;20091;-77
2024/02/21 06:29:28;;;;;;;11.27;3.10;;;7.10;99.90;;;;;;5071222;28;20047;-77
2024/02/21 06:31:54;;;;;;;8.93;2.72;;;7.10;99.90;;;;;;5053011;28;20470;-76
2024/02/21 06:34:19;;;;;;;9.63;2.58;;;7.10;99.90;;;;;;5057611;28;20075;-77
2024/02/21 06:36:45;;;;;;;8.20;2.47;;;7.10;99.90;;;;;;5071541;28;20070;-78
2024/02/21 06:39:11;;;;;;;6.40;2.20;;;7.10;99.90;;;;;;5064363;28;20425;-77
2024/02/21 06:41:37;;;;;;;7.70;2.70;;;7.20;99.90;;;;;;5053984;28;20060;-75
2024/02/21 06:44:03;;;;;;;8.98;2.95;;;7.10;99.90;;;;;;5053374;28;20053;-76
2024/02/21 06:46:29;;;;;;;6.03;2.17;;;7.10;99.90;;;;;;5055239;28;20032;-76
2024/02/21 06:48:56;;;;;;;8.30;2.70;;;7.20;99.90;;;;;;5055276;28;20029;-75
2024/02/21 06:51:22;;;;;;;13.13;2.75;;;7.10;99.90;;;;;;5055068;28;20471;-75
2024/02/21 06:53:48;;;;;;;9.02;2.83;;;7.10;99.90;;;;;;5053587;28;20074;-76
2024/02/21 06:56:14;;;;;;;6.25;2.53;;;7.10;99.90;;;;;;5053115;28;20090;-76
2024/02/21 06:58:39;;;;;;;13.45;3.50;;;7.10;99.90;;;;;;5055219;28;20021;-76
2024/02/21 07:01:05;;;;;;;9.82;2.78;;;7.20;99.90;;;;;;5053254;28;20466;-76
2024/02/21 07:03:30;;;;;;;6.85;2.70;;;7.20;99.90;;;;;;5055176;28;20040;-76
2024/02/21 07:05:56;;;;;;;11.15;3.05;;;7.10;99.90;;;;;;5053978;28;20095;-77
2024/02/21 07:08:21;;;;;;;9.00;3.05;;;7.10;99.90;;;;;;5054654;28;20021;-76
2024/02/21 07:10:47;;;;;;;8.15;2.75;;;7.20;99.90;;;;;;5053609;28;20024;-76
2024/02/21 07:13:13;;;;;;;9.35;2.97;;;7.20;99.90;;;;;;5052704;28;20075;-76
2024/02/21 07:15:39;;;;;;;12.48;2.60;;;7.20;99.90;;;;;;5054800;28;20033;-77
2024/02/21 07:18:04;;;;;;;6.43;2.33;;;7.20;99.90;;;;;;5052961;28;20095;-76
2024/02/21 07:20:30;;;;;;;7.93;2.53;;;7.20;99.90;;;;;;5053340;28;20062;-77
2024/02/21 07:22:55;;;;;;;6.07;2.90;;;7.20;99.90;;;;;;5053622;28;20021;-77
2024/02/21 07:25:21;;;;;;;6.90;2.75;;;7.20;99.90;;;;;;5069492;28;20380;-76
2024/02/21 07:27:47;;;;;;;8.98;2.65;;;7.20;99.90;;;;;;5054693;28;20036;-77
2024/02/21 07:30:13;;;;;;;8.68;2.50;;;7.20;99.90;;;;;;5069528;28;20025;-77
2024/02/21 07:32:38;;;;;;;10.90;3.13;;;7.30;99.90;;;;;;5070148;28;20029;-76
2024/02/21 07:35:05;;;;;;;8.38;2.58;;;7.30;99.90;;;;;;5069372;28;20029;-76
2024/02/21 07:37:31;;;;;;;6.70;2.72;;;7.30;99.90;;;;;;5053205;28;20124;-77
2024/02/21 07:39:56;;;;;;;9.60;2.83;;;7.30;99.90;;;;;;5053111;28;20597;-76
2024/02/21 07:42:22;;;;;;;6.38;2.60;;;7.30;99.90;;;;;;5053538;28;20140;-76
2024/02/21 07:44:47;;;;;;;8.45;2.95;;;7.40;99.90;;;;;;5052887;28;20040;-76
2024/02/21 07:47:13;;;;;;;6.28;2.65;;;7.40;99.90;;;;;;5068777;28;20055;-76
2024/02/21 07:49:44;;;;;;;8.18;2.80;;;7.40;99.90;;;;;;5053028;28;20028;-77
2024/02/21 07:52:10;;;;;;;11.80;2.83;;;7.40;99.90;;;;;;5052468;28;20053;-76
2024/02/21 07:54:35;;;;;;;7.25;2.85;;;7.50;99.90;;;;;;5054218;28;20527;-76
2024/02/21 07:57:02;;;;;;;9.43;2.92;;;7.50;99.90;;;;;;5053417;28;20112;-76
2024/02/21 07:59:29;;;;;;;14.27;3.40;;;7.60;99.90;;;;;;5052463;28;20025;-77
2024/02/21 08:01:57;;;;;;;8.02;2.70;;;7.60;99.90;;;;;;5053591;28;20020;-77
2024/02/21 08:04:23;;;;;;;10.98;2.63;;;7.70;99.90;;;;;;5053270;28;20052;-76
2024/02/21 08:06:56;;;;;;;8.18;2.65;;;7.70;99.90;;;;;;5052193;28;20478;-77
2024/02/21 08:09:24;;;;;;;7.22;2.30;;;7.80;99.90;;;;;;5051786;28;20483;-76
2024/02/21 08:11:50;;;;;;;6.07;2.40;;;7.90;99.90;;;;;;5069184;28;20056;-77
2024/02/21 08:14:16;;;;;;;9.77;2.75;;;7.90;99.90;;;;;;5068511;28;20079;-76
2024/02/21 08:16:42;;;;;;;8.45;2.92;;;7.90;99.90;;;;;;5052278;28;20077;-77
2024/02/21 08:19:08;;;;;;;6.18;2.30;;;8.00;99.90;;;;;;5053228;28;20025;-77
2024/02/21 08:21:33;;;;;;;8.15;2.70;;;8.00;99.90;;;;;;5069065;28;20469;-77
2024/02/21 08:23:59;;;;;;;5.30;2.25;;;8.00;99.90;;;;;;5068593;28;20018;-76
2024/02/21 08:26:28;;;;;;;7.25;2.70;;;8.10;99.90;;;;;;5068160;28;20029;-76
2024/02/21 08:28:53;;;;;;;8.27;2.55;;;8.10;99.90;;;;;;5068819;28;20033;-76
2024/02/21 08:31:20;;;;;;;5.97;2.33;;;8.10;99.90;;;;;;5068028;28;20054;-76
2024/02/21 08:33:45;;;;;;;9.48;2.85;;;8.20;99.90;;;;;;5051875;28;20021;-76
2024/02/21 08:36:20;;;;;;;7.43;2.25;;;8.20;99.90;;;;;;5052539;28;20033;-76
2024/02/21 08:38:46;;;;;;;8.18;2.97;;;8.20;99.90;;;;;;5068716;28;20485;-78
2024/02/21 08:41:12;;;;;;;11.73;2.53;;;8.30;99.90;;;;;;5051456;28;20111;-77
2024/02/21 08:43:37;;;;;;;9.98;2.40;;;8.40;99.90;;;;;;5053028;28;20077;-76
2024/02/21 08:46:05;;;;;;;7.50;2.00;;;8.40;99.90;;;;;;5052485;28;20025;-75
2024/02/21 08:48:30;;;;;;;6.70;2.10;;;8.50;99.90;;;;;;5052847;28;20067;-76
2024/02/21 08:50:56;;;;;;;8.15;2.60;;;8.50;99.90;;;;;;5051795;28;20543;-76
2024/02/21 08:53:21;;;;;;;7.57;2.70;;;8.60;99.90;;;;;;5067831;28;20025;-76
2024/02/21 08:55:47;;;;;;;6.15;2.22;;;8.60;99.90;;;;;;5052908;28;20029;-76
2024/02/21 08:58:14;;;;;;;9.90;2.30;;;8.60;99.90;;;;;;5051011;28;20203;-76
2024/02/21 09:00:40;;;;;;;6.75;2.00;;;8.60;99.90;;;;;;5051719;28;20029;-76
2024/02/21 09:03:05;;;;;;;6.85;2.13;;;8.70;99.90;;;;;;5051997;28;20032;-76
2024/02/21 09:05:31;;;;;;;6.78;2.05;;;8.70;99.90;;;;;;5052802;28;20470;-76
2024/02/21 09:07:56;;;;;;;4.85;1.98;;;8.70;99.90;;;;;;5052949;28;20377;-77
2024/02/21 09:10:22;;;;;;;8.57;2.10;;;8.70;99.90;;;;;;5067688;28;20025;-77
2024/02/21 09:12:47;;;;;;;7.72;2.10;;;8.80;99.90;;;;;;5051690;28;20047;-77
2024/02/21 09:15:13;;;;;;;7.07;2.28;;;8.90;99.90;;;;;;5067558;28;20078;-77
2024/02/21 09:17:39;;;;;;;5.32;2.10;;;8.90;99.90;;;;;;5052756;28;20039;-77
2024/02/21 09:20:06;;;;;;;4.80;2.22;;;9.00;99.90;;;;;;5052478;28;20104;-76
2024/02/21 09:22:34;;;;;;;6.50;1.95;;;9.00;99.90;;;;;;5052992;28;20029;-77
2024/02/21 09:25:00;;;;;;;8.13;2.05;;;9.10;99.90;;;;;;5052793;28;20017;-77
2024/02/21 09:27:26;;;;;;;8.93;2.47;;;9.20;99.90;;;;;;5067491;28;20033;-78
2024/02/21 09:29:51;;;;;;;9.32;2.05;;;9.20;99.90;;;;;;5051206;28;20036;-77
2024/02/21 09:32:19;;;;;;;7.53;2.25;;;9.20;99.90;;;;;;5067722;28;20029;-78
2024/02/21 09:34:45;;;;;;;9.93;2.38;;;9.30;99.90;;;;;;5052762;28;20025;-77
2024/02/21 09:37:10;;;;;;;8.48;1.70;;;9.40;99.90;;;;;;5051943;28;20091;-77
2024/02/21 09:39:36;;;;;;;8.82;2.00;;;9.40;99.90;;;;;;5052084;28;20413;-77
2024/02/21 09:42:07;;;;;;;9.98;2.30;;;9.50;99.90;;;;;;5051501;28;20025;-77
2024/02/21 09:44:38;;;;;;;6.85;1.60;;;9.50;99.90;;;;;;5052816;28;20053;-78
2024/02/21 09:47:09;;;;;;;5.95;1.70;;;9.60;99.90;;;;;;5068178;28;20131;-78
2024/02/21 09:49:38;;;;;;;7.10;1.85;;;9.70;99.90;;;;;;5052359;28;20086;-78
2024/02/21 09:52:07;;;;;;;7.32;1.73;;;9.70;99.90;;;;;;5067933;28;20041;-77
2024/02/21 09:54:36;;;;;;;6.97;2.10;;;9.80;99.90;;;;;;5067571;28;20036;-77
2024/02/21 09:57:03;;;;;;;4.28;1.85;;;9.80;99.90;;;;;;5067782;28;20044;-77
2024/02/21 09:59:31;;;;;;;12.77;1.83;;;9.80;99.90;;;;;;5067440;28;20453;-78
2024/02/21 10:01:56;;;;;;;7.70;1.67;;;9.90;99.90;;;;;;5052034;28;20056;-77
2024/02/21 10:04:23;;;;;;;6.63;1.75;;;9.90;99.90;;;;;;5052068;28;20035;-78
2024/02/21 10:06:49;;;;;;;7.05;1.88;;;9.90;99.90;;;;;;5051390;28;20467;-78
2024/02/21 10:09:27;;;;;;;5.75;1.88;;;9.90;99.90;;;;;;5061009;28;20028;-78
2024/02/21 10:11:54;;;;;;;7.25;1.50;;;9.90;99.90;;;;;;5070261;28;20400;-78
2024/02/21 10:14:20;;;;;;;4.75;1.65;;;9.90;99.90;;;;;;5071030;28;20029;-78
2024/02/21 10:16:56;;;;;;;6.72;1.60;;;10.00;99.90;;;;;;5055957;28;20385;-78
2024/02/21 10:19:21;;;;;;;6.95;1.95;;;10.00;99.90;;;;;;5067075;28;20059;-78
2024/02/21 10:22:10;;;;;;;3.55;1.55;;;10.00;99.90;;;;;;5067530;28;20033;-78
2024/02/21 10:24:38;;;;;;;5.35;1.30;;;9.90;99.90;;;;;;5052405;28;20108;-78
2024/02/21 10:27:07;;;;;;;9.57;1.73;;;10.00;99.90;;;;;;5067796;28;20398;-78
2024/02/21 10:29:33;;;;;;;7.22;1.65;;;10.00;99.90;;;;;;5067727;28;20525;-78
2024/02/21 10:32:12;;;;;;;5.20;1.50;;;10.00;99.90;;;;;;5070474;28;20028;-78
2024/02/21 10:34:39;;;;;;;5.18;1.50;;;10.20;99.90;;;;;;5071670;28;20120;-78
2024/02/21 10:37:06;;;;;;;6.95;1.60;;;10.20;99.90;;;;;;5071525;28;20037;-78
2024/02/21 10:39:33;;;;;;;5.38;1.40;;;10.20;99.90;;;;;;5083418;28;20035;-78
2024/02/21 10:42:03;;;;;;;6.15;1.48;;;10.30;99.90;;;;;;5075763;28;20025;-78
2024/02/21 10:44:31;;;;;;;4.55;1.30;;;10.30;99.90;;;;;;5073927;28;20505;-78
2024/02/21 10:46:57;;;;;;;4.70;1.60;;;10.40;99.90;;;;;;5075711;28;20037;-78
2024/02/21 10:49:29;;;;;;;5.13;1.30;;;10.40;99.90;;;;;;5074038;28;20075;-78
2024/02/21 10:52:21;;;;;;;5.18;1.42;;;10.40;99.90;;;;;;5075618;28;20029;-78
2024/02/21 10:54:56;;;;;;;3.67;1.30;;;10.40;99.90;;;;;;5075446;28;20145;-78
2024/02/21 10:57:22;;;;;;;4.57;1.48;;;10.50;99.90;;;;;;5074845;28;20064;-78
2024/02/21 10:59:48;;;;;;;4.30;1.58;;;10.50;99.90;;;;;;5073958;28;20039;-78
2024/02/21 11:02:15;;;;;;;6.03;1.55;;;10.50;99.90;;;;;;5073328;28;20043;-77
2024/02/21 11:04:42;;;;;;;7.88;2.30;;;10.50;99.90;;;;;;5075545;28;20020;-78
2024/02/21 11:07:08;;;;;;;9.63;1.52;;;10.60;99.90;;;;;;5074156;28;20039;-78
2024/02/21 11:09:34;;;;;;;7.85;1.63;;;10.60;99.90;;;;;;5073553;28;20028;-78
2024/02/21 11:12:04;;;;;;;10.02;1.70;;;10.60;99.90;;;;;;5075074;28;20040;-78
2024/02/21 11:14:35;;;;;;;6.10;1.55;;;10.70;99.90;;;;;;5073340;28;20037;-77
2024/02/21 11:17:03;;;;;;;6.07;1.40;;;10.80;99.90;;;;;;5075101;28;20042;-77
2024/02/21 11:19:30;;;;;;;7.65;1.73;;;10.80;99.90;;;;;;5073279;28;20477;-77
2024/02/21 11:21:57;;;;;;;7.28;1.77;;;10.80;99.90;;;;;;5073688;28;20031;-77
2024/02/21 11:24:29;;;;;;;3.78;1.30;;;10.90;99.90;;;;;;5074396;28;20099;-77
2024/02/21 11:26:56;;;;;;;6.80;1.42;;;10.90;99.90;;;;;;5073669;28;20085;-77
2024/02/21 11:29:25;;;;;;;5.40;1.20;;;10.90;99.90;;;;;;5074216;28;20370;-77
2024/02/21 11:31:52;;;;;;;6.63;1.35;;;10.90;99.90;;;;;;5073332;28;20025;-77
2024/02/21 11:34:19;;;;;;;5.88;1.75;;;10.80;99.90;;;;;;5072520;28;20102;-78
2024/02/21 11:36:53;;;;;;;8.25;1.50;;;10.90;99.90;;;;;;5074642;28;20034;-78
2024/02/21 11:39:24;;;;;;;7.82;1.40;;;10.90;99.90;;;;;;5072834;28;20047;-77
2024/02/21 11:42:03;;;;;;;4.20;1.17;;;10.90;99.90;;;;;;5073326;28;20386;-78
2024/02/21 11:44:30;;;;;;;3.78;1.20;;;10.80;99.90;;;;;;5072176;28;20056;-78
2024/02/21 11:46:55;;;;;;;6.43;1.30;;;10.80;99.90;;;;;;5074301;28;20029;-77
2024/02/21 11:49:21;;;;;;;5.50;1.50;;;10.80;99.90;;;;;;5072605;28;20103;-77
2024/02/21 11:51:46;;;;;;;6.53;1.30;;;10.90;99.90;;;;;;5073189;28;20017;-77
2024/02/21 11:54:16;;;;;;;4.10;1.35;;;11.00;99.90;;;;;;5072607;28;20024;-76
2024/02/21 11:56:41;;;;;;;8.13;1.55;;;11.00;99.90;;;;;;5073008;28;20454;-77
2024/02/21 11:59:08;;;;;;;6.65;1.35;;;11.00;99.90;;;;;;5072891;28;20025;-77
2024/02/21 12:01:34;;;;;;;2.83;0.90;;;11.00;99.90;;;;;;5073177;28;20044;-77
2024/02/21 12:03:59;;;;;;;7.25;1.20;;;11.00;99.90;;;;;;5072942;28;20063;-77
2024/02/21 12:06:25;;;;;;;4.90;1.38;;;11.00;99.90;;;;;;5073424;28;20032;-78
2024/02/21 12:08:51;;;;;;;6.43;1.33;;;11.00;99.90;;;;;;5074014;28;20012;-77
2024/02/21 12:11:21;;;;;;;4.40;1.10;;;11.00;99.90;;;;;;5073123;28;20100;-77
2024/02/21 12:13:47;;;;;;;4.95;1.27;;;11.10;99.90;;;;;;5072294;28;20040;-77
2024/02/21 12:16:18;;;;;;;3.72;1.27;;;11.10;99.90;;;;;;5073008;28;20148;-76
2024/02/21 12:18:43;;;;;;;3.53;1.20;;;11.10;99.90;;;;;;5073630;28;20025;-78
2024/02/21 12:21:10;;;;;;;5.85;1.30;;;11.30;99.90;;;;;;5072575;28;20024;-77
2024/02/21 12:23:39;;;;;;;4.80;1.30;;;11.30;99.90;;;;;;5072995;28;20399;-78
2024/02/21 12:26:04;;;;;;;4.95;1.35;;;11.40;99.90;;;;;;5072310;28;20105;-78
2024/02/21 12:28:30;;;;;;;5.32;1.60;;;11.40;99.90;;;;;;5071014;28;20079;-78
2024/02/21 12:30:56;;;;;;;5.07;1.08;;;11.40;99.90;;;;;;5072920;28;20021;-77
2024/02/21 12:33:22;;;;;;;5.38;1.55;;;11.50;99.90;;;;;;5071434;28;20024;-77
2024/02/21 12:35:49;;;;;;;4.53;1.38;;;11.50;99.90;;;;;;5072301;28;20020;-78
2024/02/21 12:38:14;;;;;;;4.68;2.13;;;11.50;99.90;;;;;;5073071;28;20028;-76
2024/02/21 12:40:40;;;;;;;6.80;1.38;;;11.50;99.90;;;;;;5071612;28;20029;-78
2024/02/21 12:43:06;;;;;;;7.80;1.58;;;11.50;99.90;;;;;;5071658;28;20052;-78
2024/02/21 12:45:31;;;;;;;1.77;1.00;;;11.40;99.90;;;;;;5071329;28;20467;-78
2024/02/21 12:47:57;;;;;;;4.75;1.13;;;11.50;99.90;;;;;;5072233;28;20028;-78
2024/02/21 12:50:23;;;;;;;3.22;1.00;;;11.60;99.90;;;;;;5071528;28;20456;-78